sensor_id;sensor_type;location;lat;lon;timestamp;P1;durP1;ratioP1;P2;durP2;ratioP2
51883;SDS011;37915;53.254;6.598;2023-06-04T00:01:20;10.20;;;3.92;;
51883;SDS011;37915;53.254;6.598;2023-06-04T00:03:46;9.10;;;3.80;;
51883;SDS011;37915;53.254;6.598;2023-06-04T00:06:12;9.15;;;4.00;;
51883;SDS011;37915;53.254;6.598;2023-06-04T00:08:38;8.20;;;3.70;;
51883;SDS011;37915;53.254;6.598;2023-06-04T00:11:03;7.43;;;4.10;;
51883;SDS011;37915;53.254;6.598;2023-06-04T00:13:29;10.07;;;4.13;;
51883;SDS011;37915;53.254;6.598;2023-06-04T00:15:55;7.93;;;4.07;;
51883;SDS011;37915;53.254;6.598;2023-06-04T00:18:21;6.45;;;3.65;;
51883;SDS011;37915;53.254;6.598;2023-06-04T00:20:47;8.25;;;4.05;;
51883;SDS011;37915;53.254;6.598;2023-06-04T00:23:12;6.88;;;4.00;;
51883;SDS011;37915;53.254;6.598;2023-06-04T00:25:38;7.10;;;4.05;;
51883;SDS011;37915;53.254;6.598;2023-06-04T00:28:04;8.90;;;4.03;;
51883;SDS011;37915;53.254;6.598;2023-06-04T00:30:29;7.32;;;4.03;;
51883;SDS011;37915;53.254;6.598;2023-06-04T00:32:56;6.28;;;3.53;;
51883;SDS011;37915;53.254;6.598;2023-06-04T00:35:21;12.00;;;4.68;;
51883;SDS011;37915;53.254;6.598;2023-06-04T00:37:47;8.20;;;3.90;;
51883;SDS011;37915;53.254;6.598;2023-06-04T00:40:13;9.38;;;4.10;;
51883;SDS011;37915;53.254;6.598;2023-06-04T00:42:39;8.95;;;4.13;;
51883;SDS011;37915;53.254;6.598;2023-06-04T00:45:05;11.38;;;4.47;;
51883;SDS011;37915;53.254;6.598;2023-06-04T00:47:32;7.93;;;4.20;;
51883;SDS011;37915;53.254;6.598;2023-06-04T00:49:58;7.25;;;4.50;;
51883;SDS011;37915;53.254;6.598;2023-06-04T00:52:25;9.55;;;4.15;;
51883;SDS011;37915;53.254;6.598;2023-06-04T00:54:51;10.88;;;4.65;;
51883;SDS011;37915;53.254;6.598;2023-06-04T00:57:17;11.50;;;4.97;;
51883;SDS011;37915;53.254;6.598;2023-06-04T00:59:43;5.80;;;3.65;;
51883;SDS011;37915;53.254;6.598;2023-06-04T01:02:11;7.35;;;4.30;;
51883;SDS011;37915;53.254;6.598;2023-06-04T01:04:46;7.63;;;3.80;;
51883;SDS011;37915;53.254;6.598;2023-06-04T01:07:13;8.73;;;3.90;;
51883;SDS011;37915;53.254;6.598;2023-06-04T01:09:40;8.35;;;3.95;;
51883;SDS011;37915;53.254;6.598;2023-06-04T01:12:06;8.55;;;4.00;;
51883;SDS011;37915;53.254;6.598;2023-06-04T01:14:33;8.82;;;4.03;;
51883;SDS011;37915;53.254;6.598;2023-06-04T01:16:59;12.43;;;4.53;;
51883;SDS011;37915;53.254;6.598;2023-06-04T01:22:35;7.97;;;4.13;;
51883;SDS011;37915;53.254;6.598;2023-06-04T01:25:14;8.50;;;4.20;;
51883;SDS011;37915;53.254;6.598;2023-06-04T01:27:48;8.35;;;4.30;;
51883;SDS011;37915;53.254;6.598;2023-06-04T01:30:18;8.32;;;4.05;;
51883;SDS011;37915;53.254;6.598;2023-06-04T01:32:48;11.90;;;4.38;;
51883;SDS011;37915;53.254;6.598;2023-06-04T01:35:14;9.60;;;3.80;;
51883;SDS011;37915;53.254;6.598;2023-06-04T01:37:39;9.30;;;4.68;;
51883;SDS011;37915;53.254;6.598;2023-06-04T01:40:05;7.90;;;4.28;;
51883;SDS011;37915;53.254;6.598;2023-06-04T01:42:33;8.73;;;4.00;;
51883;SDS011;37915;53.254;6.598;2023-06-04T01:44:59;8.18;;;4.28;;
51883;SDS011;37915;53.254;6.598;2023-06-04T01:47:25;10.60;;;4.20;;
51883;SDS011;37915;53.254;6.598;2023-06-04T01:49:50;9.57;;;4.38;;
51883;SDS011;37915;53.254;6.598;2023-06-04T01:52:16;7.07;;;4.07;;
51883;SDS011;37915;53.254;6.598;2023-06-04T01:54:42;9.95;;;4.00;;
51883;SDS011;37915;53.254;6.598;2023-06-04T01:57:08;8.95;;;4.15;;
51883;SDS011;37915;53.254;6.598;2023-06-04T01:59:35;9.95;;;4.13;;
51883;SDS011;37915;53.254;6.598;2023-06-04T02:02:01;9.10;;;3.70;;
51883;SDS011;37915;53.254;6.598;2023-06-04T02:04:27;11.13;;;4.25;;
51883;SDS011;37915;53.254;6.598;2023-06-04T02:06:53;11.35;;;4.38;;
51883;SDS011;37915;53.254;6.598;2023-06-04T02:09:20;8.57;;;3.92;;
51883;SDS011;37915;53.254;6.598;2023-06-04T02:11:46;6.15;;;3.33;;
51883;SDS011;37915;53.254;6.598;2023-06-04T02:14:12;10.13;;;3.70;;
51883;SDS011;37915;53.254;6.598;2023-06-04T02:16:37;9.80;;;3.50;;
51883;SDS011;37915;53.254;6.598;2023-06-04T02:19:04;6.78;;;3.42;;
51883;SDS011;37915;53.254;6.598;2023-06-04T02:21:29;6.97;;;3.47;;
51883;SDS011;37915;53.254;6.598;2023-06-04T02:23:55;5.97;;;3.60;;
51883;SDS011;37915;53.254;6.598;2023-06-04T02:26:21;6.93;;;3.50;;
51883;SDS011;37915;53.254;6.598;2023-06-04T02:28:48;6.63;;;3.65;;
51883;SDS011;37915;53.254;6.598;2023-06-04T02:31:14;9.95;;;4.28;;
51883;SDS011;37915;53.254;6.598;2023-06-04T02:33:39;8.05;;;4.00;;
51883;SDS011;37915;53.254;6.598;2023-06-04T02:36:05;10.25;;;3.60;;
51883;SDS011;37915;53.254;6.598;2023-06-04T02:38:31;7.22;;;3.88;;
51883;SDS011;37915;53.254;6.598;2023-06-04T02:40:57;8.00;;;3.35;;
51883;SDS011;37915;53.254;6.598;2023-06-04T02:43:22;6.63;;;3.40;;
51883;SDS011;37915;53.254;6.598;2023-06-04T02:45:48;6.55;;;3.05;;
51883;SDS011;37915;53.254;6.598;2023-06-04T02:48:14;6.25;;;2.72;;
51883;SDS011;37915;53.254;6.598;2023-06-04T02:50:39;6.25;;;2.30;;
51883;SDS011;37915;53.254;6.598;2023-06-04T02:53:07;5.88;;;2.42;;
51883;SDS011;37915;53.254;6.598;2023-06-04T02:55:33;4.53;;;2.13;;
51883;SDS011;37915;53.254;6.598;2023-06-04T02:57:59;6.70;;;2.50;;
51883;SDS011;37915;53.254;6.598;2023-06-04T03:00:25;6.22;;;2.15;;
51883;SDS011;37915;53.254;6.598;2023-06-04T03:02:51;5.82;;;2.50;;
51883;SDS011;37915;53.254;6.598;2023-06-04T03:05:17;7.18;;;2.22;;
51883;SDS011;37915;53.254;6.598;2023-06-04T03:07:43;4.43;;;1.92;;
51883;SDS011;37915;53.254;6.598;2023-06-04T03:10:10;4.85;;;2.25;;
51883;SDS011;37915;53.254;6.598;2023-06-04T03:12:37;4.63;;;1.98;;
51883;SDS011;37915;53.254;6.598;2023-06-04T03:15:03;4.65;;;2.35;;
51883;SDS011;37915;53.254;6.598;2023-06-04T03:17:29;4.55;;;2.60;;
51883;SDS011;37915;53.254;6.598;2023-06-04T03:19:56;9.38;;;3.47;;
51883;SDS011;37915;53.254;6.598;2023-06-04T03:22:22;6.47;;;2.17;;
51883;SDS011;37915;53.254;6.598;2023-06-04T03:24:48;7.30;;;2.97;;
51883;SDS011;37915;53.254;6.598;2023-06-04T03:27:13;4.97;;;2.65;;
51883;SDS011;37915;53.254;6.598;2023-06-04T03:29:39;8.18;;;3.40;;
51883;SDS011;37915;53.254;6.598;2023-06-04T03:32:05;6.95;;;3.67;;
51883;SDS011;37915;53.254;6.598;2023-06-04T03:34:31;6.32;;;3.28;;
51883;SDS011;37915;53.254;6.598;2023-06-04T03:36:58;5.90;;;2.50;;
51883;SDS011;37915;53.254;6.598;2023-06-04T03:39:24;6.10;;;2.88;;
51883;SDS011;37915;53.254;6.598;2023-06-04T03:41:50;5.38;;;3.03;;
51883;SDS011;37915;53.254;6.598;2023-06-04T03:44:16;7.43;;;3.08;;
51883;SDS011;37915;53.254;6.598;2023-06-04T03:46:43;4.88;;;3.08;;
51883;SDS011;37915;53.254;6.598;2023-06-04T03:49:09;7.63;;;3.38;;
51883;SDS011;37915;53.254;6.598;2023-06-04T03:51:36;8.50;;;3.60;;
51883;SDS011;37915;53.254;6.598;2023-06-04T03:54:02;7.65;;;3.35;;
51883;SDS011;37915;53.254;6.598;2023-06-04T03:56:28;5.70;;;3.35;;
51883;SDS011;37915;53.254;6.598;2023-06-04T03:58:54;7.63;;;3.40;;
51883;SDS011;37915;53.254;6.598;2023-06-04T04:01:20;6.43;;;3.55;;
51883;SDS011;37915;53.254;6.598;2023-06-04T04:03:46;7.45;;;3.45;;
51883;SDS011;37915;53.254;6.598;2023-06-04T04:06:14;6.22;;;3.22;;
51883;SDS011;37915;53.254;6.598;2023-06-04T04:08:41;6.80;;;3.53;;
51883;SDS011;37915;53.254;6.598;2023-06-04T04:11:10;6.95;;;3.10;;
51883;SDS011;37915;53.254;6.598;2023-06-04T04:13:37;7.22;;;3.40;;
51883;SDS011;37915;53.254;6.598;2023-06-04T04:16:02;5.90;;;3.30;;
51883;SDS011;37915;53.254;6.598;2023-06-04T04:18:31;4.70;;;3.05;;
51883;SDS011;37915;53.254;6.598;2023-06-04T04:21:01;5.60;;;3.10;;
51883;SDS011;37915;53.254;6.598;2023-06-04T04:23:28;9.70;;;3.22;;
51883;SDS011;37915;53.254;6.598;2023-06-04T04:25:54;6.95;;;3.60;;
51883;SDS011;37915;53.254;6.598;2023-06-04T04:28:23;6.50;;;3.15;;
51883;SDS011;37915;53.254;6.598;2023-06-04T04:30:53;6.10;;;3.50;;
51883;SDS011;37915;53.254;6.598;2023-06-04T04:33:21;7.55;;;4.35;;
51883;SDS011;37915;53.254;6.598;2023-06-04T04:35:49;8.95;;;3.75;;
51883;SDS011;37915;53.254;6.598;2023-06-04T04:38:15;8.43;;;3.85;;
51883;SDS011;37915;53.254;6.598;2023-06-04T04:40:43;7.45;;;4.00;;
51883;SDS011;37915;53.254;6.598;2023-06-04T04:43:08;7.60;;;3.78;;
51883;SDS011;37915;53.254;6.598;2023-06-04T04:45:34;8.93;;;3.75;;
51883;SDS011;37915;53.254;6.598;2023-06-04T04:48:00;9.60;;;3.67;;
51883;SDS011;37915;53.254;6.598;2023-06-04T04:50:25;7.95;;;4.53;;
51883;SDS011;37915;53.254;6.598;2023-06-04T04:52:51;8.30;;;4.97;;
51883;SDS011;37915;53.254;6.598;2023-06-04T04:55:17;13.52;;;4.35;;
51883;SDS011;37915;53.254;6.598;2023-06-04T04:57:42;8.23;;;4.63;;
51883;SDS011;37915;53.254;6.598;2023-06-04T05:00:08;9.25;;;4.55;;
51883;SDS011;37915;53.254;6.598;2023-06-04T05:02:35;7.38;;;4.18;;
51883;SDS011;37915;53.254;6.598;2023-06-04T05:05:01;8.85;;;4.75;;
51883;SDS011;37915;53.254;6.598;2023-06-04T05:07:28;13.00;;;4.63;;
51883;SDS011;37915;53.254;6.598;2023-06-04T05:09:53;9.40;;;4.78;;
51883;SDS011;37915;53.254;6.598;2023-06-04T05:12:19;11.48;;;5.45;;
51883;SDS011;37915;53.254;6.598;2023-06-04T05:14:45;11.52;;;5.15;;
51883;SDS011;37915;53.254;6.598;2023-06-04T05:17:11;11.75;;;5.07;;
51883;SDS011;37915;53.254;6.598;2023-06-04T05:19:38;14.52;;;5.93;;
51883;SDS011;37915;53.254;6.598;2023-06-04T05:22:04;12.07;;;5.47;;
51883;SDS011;37915;53.254;6.598;2023-06-04T05:24:30;9.48;;;5.90;;
51883;SDS011;37915;53.254;6.598;2023-06-04T05:26:57;14.70;;;5.35;;
51883;SDS011;37915;53.254;6.598;2023-06-04T05:29:23;10.82;;;5.28;;
51883;SDS011;37915;53.254;6.598;2023-06-04T05:31:49;10.77;;;5.82;;
51883;SDS011;37915;53.254;6.598;2023-06-04T05:34:15;9.65;;;6.10;;
51883;SDS011;37915;53.254;6.598;2023-06-04T05:36:41;13.30;;;6.25;;
51883;SDS011;37915;53.254;6.598;2023-06-04T05:39:08;13.93;;;6.93;;
51883;SDS011;37915;53.254;6.598;2023-06-04T05:41:37;11.55;;;7.22;;
51883;SDS011;37915;53.254;6.598;2023-06-04T05:44:02;12.45;;;6.40;;
51883;SDS011;37915;53.254;6.598;2023-06-04T05:46:28;13.90;;;6.07;;
51883;SDS011;37915;53.254;6.598;2023-06-04T05:48:54;16.02;;;7.53;;
51883;SDS011;37915;53.254;6.598;2023-06-04T05:51:20;14.85;;;6.97;;
51883;SDS011;37915;53.254;6.598;2023-06-04T05:53:46;12.32;;;6.18;;
51883;SDS011;37915;53.254;6.598;2023-06-04T05:56:12;15.43;;;6.43;;
51883;SDS011;37915;53.254;6.598;2023-06-04T05:58:38;12.80;;;5.65;;
51883;SDS011;37915;53.254;6.598;2023-06-04T06:01:04;10.02;;;5.72;;
51883;SDS011;37915;53.254;6.598;2023-06-04T06:03:30;11.60;;;5.60;;
51883;SDS011;37915;53.254;6.598;2023-06-04T06:05:56;9.73;;;5.38;;
51883;SDS011;37915;53.254;6.598;2023-06-04T06:08:24;10.30;;;4.63;;
51883;SDS011;37915;53.254;6.598;2023-06-04T06:10:50;14.38;;;4.82;;
51883;SDS011;37915;53.254;6.598;2023-06-04T06:13:16;8.50;;;4.45;;
51883;SDS011;37915;53.254;6.598;2023-06-04T06:15:42;15.27;;;4.90;;
51883;SDS011;37915;53.254;6.598;2023-06-04T06:18:08;11.57;;;4.80;;
51883;SDS011;37915;53.254;6.598;2023-06-04T06:20:34;8.23;;;4.45;;
51883;SDS011;37915;53.254;6.598;2023-06-04T06:23:09;9.45;;;4.38;;
51883;SDS011;37915;53.254;6.598;2023-06-04T06:25:35;14.50;;;4.90;;
51883;SDS011;37915;53.254;6.598;2023-06-04T06:28:00;11.85;;;5.03;;
51883;SDS011;37915;53.254;6.598;2023-06-04T06:30:26;11.23;;;4.60;;
51883;SDS011;37915;53.254;6.598;2023-06-04T06:32:52;12.98;;;4.25;;
51883;SDS011;37915;53.254;6.598;2023-06-04T06:35:18;12.20;;;3.67;;
51883;SDS011;37915;53.254;6.598;2023-06-04T06:37:44;10.25;;;3.40;;
51883;SDS011;37915;53.254;6.598;2023-06-04T06:40:10;12.13;;;3.47;;
51883;SDS011;37915;53.254;6.598;2023-06-04T06:42:36;9.95;;;3.25;;
51883;SDS011;37915;53.254;6.598;2023-06-04T06:45:02;8.85;;;2.97;;
51883;SDS011;37915;53.254;6.598;2023-06-04T06:47:28;9.15;;;3.03;;
51883;SDS011;37915;53.254;6.598;2023-06-04T06:49:53;5.25;;;2.35;;
51883;SDS011;37915;53.254;6.598;2023-06-04T06:52:19;10.05;;;3.22;;
51883;SDS011;37915;53.254;6.598;2023-06-04T06:54:45;9.48;;;3.15;;
51883;SDS011;37915;53.254;6.598;2023-06-04T06:57:11;7.72;;;2.50;;
51883;SDS011;37915;53.254;6.598;2023-06-04T06:59:37;6.82;;;2.35;;
51883;SDS011;37915;53.254;6.598;2023-06-04T07:02:03;4.78;;;1.83;;
51883;SDS011;37915;53.254;6.598;2023-06-04T07:04:30;5.68;;;2.35;;
51883;SDS011;37915;53.254;6.598;2023-06-04T07:06:55;6.38;;;2.38;;
51883;SDS011;37915;53.254;6.598;2023-06-04T07:09:21;4.97;;;2.08;;
51883;SDS011;37915;53.254;6.598;2023-06-04T07:11:47;6.65;;;2.50;;
51883;SDS011;37915;53.254;6.598;2023-06-04T07:14:14;7.25;;;1.92;;
51883;SDS011;37915;53.254;6.598;2023-06-04T07:16:40;5.38;;;1.90;;
51883;SDS011;37915;53.254;6.598;2023-06-04T07:19:05;7.55;;;2.30;;
51883;SDS011;37915;53.254;6.598;2023-06-04T07:21:31;5.93;;;2.10;;
51883;SDS011;37915;53.254;6.598;2023-06-04T07:23:57;6.03;;;2.17;;
51883;SDS011;37915;53.254;6.598;2023-06-04T07:26:22;5.63;;;1.90;;
51883;SDS011;37915;53.254;6.598;2023-06-04T07:28:50;3.90;;;1.67;;
51883;SDS011;37915;53.254;6.598;2023-06-04T07:31:16;9.18;;;2.15;;
51883;SDS011;37915;53.254;6.598;2023-06-04T07:33:42;4.43;;;1.80;;
51883;SDS011;37915;53.254;6.598;2023-06-04T07:36:15;7.00;;;2.33;;
51883;SDS011;37915;53.254;6.598;2023-06-04T07:38:41;7.50;;;1.90;;
51883;SDS011;37915;53.254;6.598;2023-06-04T07:41:09;7.47;;;2.13;;
51883;SDS011;37915;53.254;6.598;2023-06-04T07:43:35;5.78;;;2.10;;
51883;SDS011;37915;53.254;6.598;2023-06-04T07:46:04;10.38;;;2.22;;
51883;SDS011;37915;53.254;6.598;2023-06-04T07:48:30;7.35;;;2.28;;
51883;SDS011;37915;53.254;6.598;2023-06-04T07:51:00;7.25;;;2.15;;
51883;SDS011;37915;53.254;6.598;2023-06-04T07:53:27;8.90;;;2.22;;
51883;SDS011;37915;53.254;6.598;2023-06-04T07:55:53;6.22;;;2.53;;
51883;SDS011;37915;53.254;6.598;2023-06-04T07:58:19;5.47;;;1.80;;
51883;SDS011;37915;53.254;6.598;2023-06-04T08:00:44;9.43;;;3.00;;
51883;SDS011;37915;53.254;6.598;2023-06-04T08:03:10;5.75;;;2.22;;
51883;SDS011;37915;53.254;6.598;2023-06-04T08:05:36;7.07;;;2.70;;
51883;SDS011;37915;53.254;6.598;2023-06-04T08:08:02;6.22;;;2.22;;
51883;SDS011;37915;53.254;6.598;2023-06-04T08:10:28;9.77;;;2.75;;
51883;SDS011;37915;53.254;6.598;2023-06-04T08:12:55;7.82;;;2.00;;
51883;SDS011;37915;53.254;6.598;2023-06-04T08:15:21;6.93;;;2.35;;
51883;SDS011;37915;53.254;6.598;2023-06-04T08:17:47;6.45;;;2.17;;
51883;SDS011;37915;53.254;6.598;2023-06-04T08:20:13;8.05;;;1.80;;
51883;SDS011;37915;53.254;6.598;2023-06-04T08:22:38;5.18;;;1.77;;
51883;SDS011;37915;53.254;6.598;2023-06-04T08:25:04;6.07;;;2.05;;
51883;SDS011;37915;53.254;6.598;2023-06-04T08:27:30;5.03;;;1.85;;
51883;SDS011;37915;53.254;6.598;2023-06-04T08:29:56;5.82;;;1.75;;
51883;SDS011;37915;53.254;6.598;2023-06-04T08:32:22;6.53;;;1.85;;
51883;SDS011;37915;53.254;6.598;2023-06-04T08:34:49;6.00;;;1.80;;
51883;SDS011;37915;53.254;6.598;2023-06-04T08:37:16;4.25;;;1.90;;
51883;SDS011;37915;53.254;6.598;2023-06-04T08:39:44;10.43;;;2.10;;
51883;SDS011;37915;53.254;6.598;2023-06-04T08:42:14;7.90;;;2.00;;
51883;SDS011;37915;53.254;6.598;2023-06-04T08:44:49;6.00;;;2.00;;
51883;SDS011;37915;53.254;6.598;2023-06-04T08:47:17;3.63;;;1.42;;
51883;SDS011;37915;53.254;6.598;2023-06-04T08:49:45;5.28;;;1.90;;
51883;SDS011;37915;53.254;6.598;2023-06-04T08:52:15;5.05;;;1.52;;
51883;SDS011;37915;53.254;6.598;2023-06-04T08:54:41;6.22;;;1.50;;
51883;SDS011;37915;53.254;6.598;2023-06-04T08:57:07;4.38;;;1.65;;
51883;SDS011;37915;53.254;6.598;2023-06-04T08:59:34;5.32;;;1.63;;
51883;SDS011;37915;53.254;6.598;2023-06-04T09:02:00;4.45;;;1.88;;
51883;SDS011;37915;53.254;6.598;2023-06-04T09:04:28;4.15;;;1.70;;
51883;SDS011;37915;53.254;6.598;2023-06-04T09:06:55;6.50;;;1.88;;
51883;SDS011;37915;53.254;6.598;2023-06-04T09:09:26;5.47;;;1.67;;
51883;SDS011;37915;53.254;6.598;2023-06-04T09:11:55;6.38;;;2.22;;
51883;SDS011;37915;53.254;6.598;2023-06-04T09:14:22;4.50;;;1.38;;
51883;SDS011;37915;53.254;6.598;2023-06-04T09:16:51;4.78;;;1.70;;
51883;SDS011;37915;53.254;6.598;2023-06-04T09:19:20;8.47;;;2.10;;
51883;SDS011;37915;53.254;6.598;2023-06-04T09:24:20;5.25;;;1.60;;
51883;SDS011;37915;53.254;6.598;2023-06-04T09:26:46;5.03;;;1.55;;
51883;SDS011;37915;53.254;6.598;2023-06-04T09:29:12;3.90;;;1.67;;
51883;SDS011;37915;53.254;6.598;2023-06-04T09:31:39;4.20;;;1.92;;
51883;SDS011;37915;53.254;6.598;2023-06-04T09:34:05;4.95;;;1.80;;
51883;SDS011;37915;53.254;6.598;2023-06-04T09:36:31;4.38;;;1.50;;
51883;SDS011;37915;53.254;6.598;2023-06-04T09:38:58;3.15;;;1.40;;
51883;SDS011;37915;53.254;6.598;2023-06-04T09:41:24;5.93;;;1.48;;
51883;SDS011;37915;53.254;6.598;2023-06-04T09:43:58;6.55;;;1.48;;
51883;SDS011;37915;53.254;6.598;2023-06-04T09:46:28;4.65;;;1.30;;
51883;SDS011;37915;53.254;6.598;2023-06-04T09:49:01;4.10;;;1.60;;
51883;SDS011;37915;53.254;6.598;2023-06-04T09:51:28;3.00;;;1.40;;
51883;SDS011;37915;53.254;6.598;2023-06-04T09:54:02;5.68;;;1.75;;
51883;SDS011;37915;53.254;6.598;2023-06-04T09:56:28;4.65;;;1.50;;
51883;SDS011;37915;53.254;6.598;2023-06-04T09:59:04;5.30;;;1.60;;
51883;SDS011;37915;53.254;6.598;2023-06-04T10:01:30;5.60;;;1.80;;
51883;SDS011;37915;53.254;6.598;2023-06-04T10:03:57;5.53;;;1.38;;
51883;SDS011;37915;53.254;6.598;2023-06-04T10:06:27;4.78;;;2.22;;
51883;SDS011;37915;53.254;6.598;2023-06-04T10:08:58;4.32;;;1.42;;
51883;SDS011;37915;53.254;6.598;2023-06-04T10:11:26;5.93;;;1.95;;
51883;SDS011;37915;53.254;6.598;2023-06-04T10:14:03;4.70;;;1.70;;
51883;SDS011;37915;53.254;6.598;2023-06-04T10:16:42;3.80;;;1.45;;
51883;SDS011;37915;53.254;6.598;2023-06-04T10:19:08;5.18;;;1.80;;
51883;SDS011;37915;53.254;6.598;2023-06-04T10:21:35;4.72;;;1.70;;
51883;SDS011;37915;53.254;6.598;2023-06-04T10:24:02;4.18;;;1.42;;
51883;SDS011;37915;53.254;6.598;2023-06-04T10:26:32;4.97;;;1.80;;
51883;SDS011;37915;53.254;6.598;2023-06-04T10:29:01;3.60;;;1.42;;
51883;SDS011;37915;53.254;6.598;2023-06-04T10:31:31;6.35;;;1.73;;
51883;SDS011;37915;53.254;6.598;2023-06-04T10:34:00;4.22;;;1.80;;
51883;SDS011;37915;53.254;6.598;2023-06-04T10:36:29;4.10;;;1.77;;
51883;SDS011;37915;53.254;6.598;2023-06-04T10:38:58;6.45;;;1.95;;
51883;SDS011;37915;53.254;6.598;2023-06-04T10:41:24;4.18;;;1.85;;
51883;SDS011;37915;53.254;6.598;2023-06-04T10:43:52;6.03;;;1.88;;
51883;SDS011;37915;53.254;6.598;2023-06-04T10:46:36;5.18;;;1.92;;
51883;SDS011;37915;53.254;6.598;2023-06-04T10:49:07;5.88;;;1.88;;
51883;SDS011;37915;53.254;6.598;2023-06-04T10:51:37;4.68;;;1.80;;
51883;SDS011;37915;53.254;6.598;2023-06-04T10:54:03;4.85;;;1.83;;
51883;SDS011;37915;53.254;6.598;2023-06-04T10:56:32;5.03;;;1.73;;
51883;SDS011;37915;53.254;6.598;2023-06-04T10:59:00;5.40;;;1.90;;
51883;SDS011;37915;53.254;6.598;2023-06-04T11:01:38;4.55;;;1.60;;
51883;SDS011;37915;53.254;6.598;2023-06-04T11:04:03;5.18;;;1.45;;
51883;SDS011;37915;53.254;6.598;2023-06-04T11:06:30;5.38;;;1.50;;
51883;SDS011;37915;53.254;6.598;2023-06-04T11:09:04;5.05;;;1.63;;
51883;SDS011;37915;53.254;6.598;2023-06-04T11:11:33;3.72;;;1.35;;
51883;SDS011;37915;53.254;6.598;2023-06-04T11:14:11;4.85;;;1.40;;
51883;SDS011;37915;53.254;6.598;2023-06-04T11:16:42;3.92;;;1.52;;
51883;SDS011;37915;53.254;6.598;2023-06-04T11:19:08;4.40;;;1.48;;
51883;SDS011;37915;53.254;6.598;2023-06-04T11:21:34;4.40;;;1.52;;
51883;SDS011;37915;53.254;6.598;2023-06-04T11:24:03;4.07;;;1.77;;
51883;SDS011;37915;53.254;6.598;2023-06-04T11:26:33;5.35;;;1.85;;
51883;SDS011;37915;53.254;6.598;2023-06-04T11:29:00;4.57;;;1.65;;
51883;SDS011;37915;53.254;6.598;2023-06-04T11:31:27;5.18;;;1.83;;
51883;SDS011;37915;53.254;6.598;2023-06-04T11:33:52;5.28;;;1.80;;
51883;SDS011;37915;53.254;6.598;2023-06-04T11:36:25;4.57;;;1.73;;
51883;SDS011;37915;53.254;6.598;2023-06-04T11:38:57;5.53;;;1.90;;
51883;SDS011;37915;53.254;6.598;2023-06-04T11:41:27;3.28;;;1.42;;
51883;SDS011;37915;53.254;6.598;2023-06-04T11:43:57;3.72;;;1.40;;
51883;SDS011;37915;53.254;6.598;2023-06-04T11:46:26;5.05;;;1.80;;
51883;SDS011;37915;53.254;6.598;2023-06-04T11:48:52;4.28;;;1.70;;
51883;SDS011;37915;53.254;6.598;2023-06-04T11:51:21;3.67;;;1.40;;
51883;SDS011;37915;53.254;6.598;2023-06-04T11:53:48;4.80;;;1.58;;
51883;SDS011;37915;53.254;6.598;2023-06-04T11:56:14;7.43;;;1.88;;
51883;SDS011;37915;53.254;6.598;2023-06-04T11:58:41;4.43;;;1.42;;
51883;SDS011;37915;53.254;6.598;2023-06-04T12:01:07;3.97;;;1.38;;
51883;SDS011;37915;53.254;6.598;2023-06-04T12:03:37;5.13;;;1.60;;
51883;SDS011;37915;53.254;6.598;2023-06-04T12:06:10;3.80;;;1.42;;
51883;SDS011;37915;53.254;6.598;2023-06-04T12:08:53;6.07;;;1.95;;
51883;SDS011;37915;53.254;6.598;2023-06-04T12:11:33;3.90;;;1.40;;
51883;SDS011;37915;53.254;6.598;2023-06-04T12:14:00;4.97;;;1.80;;
51883;SDS011;37915;53.254;6.598;2023-06-04T12:16:28;4.40;;;1.58;;
51883;SDS011;37915;53.254;6.598;2023-06-04T12:19:10;5.13;;;1.70;;
51883;SDS011;37915;53.254;6.598;2023-06-04T12:21:37;6.30;;;1.58;;
51883;SDS011;37915;53.254;6.598;2023-06-04T12:24:11;5.35;;;1.50;;
51883;SDS011;37915;53.254;6.598;2023-06-04T12:26:38;4.43;;;1.30;;
51883;SDS011;37915;53.254;6.598;2023-06-04T12:29:15;4.00;;;1.55;;
51883;SDS011;37915;53.254;6.598;2023-06-04T12:31:46;4.65;;;1.42;;
51883;SDS011;37915;53.254;6.598;2023-06-04T12:34:14;3.17;;;1.60;;
51883;SDS011;37915;53.254;6.598;2023-06-04T12:36:42;4.43;;;1.50;;
51883;SDS011;37915;53.254;6.598;2023-06-04T12:39:08;4.45;;;1.30;;
51883;SDS011;37915;53.254;6.598;2023-06-04T12:41:34;3.53;;;1.40;;
51883;SDS011;37915;53.254;6.598;2023-06-04T12:44:00;5.32;;;1.67;;
51883;SDS011;37915;53.254;6.598;2023-06-04T12:46:26;5.45;;;1.20;;
51883;SDS011;37915;53.254;6.598;2023-06-04T12:48:53;4.90;;;1.40;;
51883;SDS011;37915;53.254;6.598;2023-06-04T12:51:20;5.78;;;1.58;;
51883;SDS011;37915;53.254;6.598;2023-06-04T12:53:49;5.00;;;1.60;;
51883;SDS011;37915;53.254;6.598;2023-06-04T12:56:15;4.93;;;1.70;;
51883;SDS011;37915;53.254;6.598;2023-06-04T12:58:41;5.13;;;1.73;;
51883;SDS011;37915;53.254;6.598;2023-06-04T13:01:07;4.85;;;1.73;;
51883;SDS011;37915;53.254;6.598;2023-06-04T13:03:33;4.25;;;1.58;;
51883;SDS011;37915;53.254;6.598;2023-06-04T13:06:01;4.30;;;1.40;;
51883;SDS011;37915;53.254;6.598;2023-06-04T13:08:27;4.07;;;1.33;;
51883;SDS011;37915;53.254;6.598;2023-06-04T13:10:53;3.40;;;1.40;;
51883;SDS011;37915;53.254;6.598;2023-06-04T13:13:19;3.78;;;1.65;;
51883;SDS011;37915;53.254;6.598;2023-06-04T13:15:45;3.67;;;1.40;;
51883;SDS011;37915;53.254;6.598;2023-06-04T13:18:11;4.72;;;1.55;;
51883;SDS011;37915;53.254;6.598;2023-06-04T13:20:37;4.25;;;1.83;;
51883;SDS011;37915;53.254;6.598;2023-06-04T13:23:04;4.03;;;1.42;;
51883;SDS011;37915;53.254;6.598;2023-06-04T13:25:30;3.08;;;1.27;;
51883;SDS011;37915;53.254;6.598;2023-06-04T13:27:58;3.30;;;1.50;;
51883;SDS011;37915;53.254;6.598;2023-06-04T13:30:24;4.15;;;1.85;;
51883;SDS011;37915;53.254;6.598;2023-06-04T13:32:50;6.30;;;1.70;;
51883;SDS011;37915;53.254;6.598;2023-06-04T13:35:15;6.13;;;1.50;;
51883;SDS011;37915;53.254;6.598;2023-06-04T13:37:41;5.57;;;1.55;;
51883;SDS011;37915;53.254;6.598;2023-06-04T13:40:07;4.63;;;1.70;;
51883;SDS011;37915;53.254;6.598;2023-06-04T13:42:33;4.63;;;1.60;;
51883;SDS011;37915;53.254;6.598;2023-06-04T13:44:59;4.50;;;1.35;;
51883;SDS011;37915;53.254;6.598;2023-06-04T13:47:24;4.65;;;1.67;;
51883;SDS011;37915;53.254;6.598;2023-06-04T13:49:50;6.80;;;1.77;;
51883;SDS011;37915;53.254;6.598;2023-06-04T13:52:16;4.15;;;1.60;;
51883;SDS011;37915;53.254;6.598;2023-06-04T13:54:42;4.63;;;1.52;;
51883;SDS011;37915;53.254;6.598;2023-06-04T13:57:08;6.57;;;1.70;;
51883;SDS011;37915;53.254;6.598;2023-06-04T13:59:40;3.50;;;1.40;;
51883;SDS011;37915;53.254;6.598;2023-06-04T14:02:06;4.63;;;1.45;;
51883;SDS011;37915;53.254;6.598;2023-06-04T14:04:32;6.32;;;1.63;;
51883;SDS011;37915;53.254;6.598;2023-06-04T14:06:58;3.90;;;1.30;;
51883;SDS011;37915;53.254;6.598;2023-06-04T14:09:24;4.78;;;1.55;;
51883;SDS011;37915;53.254;6.598;2023-06-04T14:11:50;4.38;;;1.40;;
51883;SDS011;37915;53.254;6.598;2023-06-04T14:14:19;4.35;;;1.42;;
51883;SDS011;37915;53.254;6.598;2023-06-04T14:19:14;4.93;;;1.33;;
51883;SDS011;37915;53.254;6.598;2023-06-04T14:21:41;6.20;;;1.80;;
51883;SDS011;37915;53.254;6.598;2023-06-04T14:24:08;3.90;;;1.52;;
51883;SDS011;37915;53.254;6.598;2023-06-04T14:26:34;3.63;;;1.65;;
51883;SDS011;37915;53.254;6.598;2023-06-04T14:29:01;5.28;;;1.30;;
51883;SDS011;37915;53.254;6.598;2023-06-04T14:31:27;5.85;;;1.67;;
51883;SDS011;37915;53.254;6.598;2023-06-04T14:33:53;6.80;;;1.95;;
51883;SDS011;37915;53.254;6.598;2023-06-04T14:36:18;4.82;;;1.38;;
51883;SDS011;37915;53.254;6.598;2023-06-04T14:38:44;4.93;;;1.60;;
51883;SDS011;37915;53.254;6.598;2023-06-04T14:41:11;5.82;;;1.52;;
51883;SDS011;37915;53.254;6.598;2023-06-04T14:43:37;3.67;;;1.25;;
51883;SDS011;37915;53.254;6.598;2023-06-04T14:46:03;6.18;;;1.77;;
51883;SDS011;37915;53.254;6.598;2023-06-04T14:48:29;6.00;;;2.30;;
51883;SDS011;37915;53.254;6.598;2023-06-04T14:50:55;4.10;;;1.60;;
51883;SDS011;37915;53.254;6.598;2023-06-04T14:53:21;4.70;;;1.95;;